sensor_id;sensor_type;location;lat;lon;timestamp;P1;durP1;ratioP1;P2;durP2;ratioP2
22103;SDS011;11218;48.886;9.426;2022-12-18T00:00:05;65.53;;;22.27;;
22103;SDS011;11218;48.886;9.426;2022-12-18T00:02:34;68.33;;;23.97;;
22103;SDS011;11218;48.886;9.426;2022-12-18T00:05:03;66.50;;;23.13;;
22103;SDS011;11218;48.886;9.426;2022-12-18T00:07:33;72.30;;;24.10;;
22103;SDS011;11218;48.886;9.426;2022-12-18T00:10:01;68.80;;;23.97;;
22103;SDS011;11218;48.886;9.426;2022-12-18T00:12:29;71.47;;;24.53;;
22103;SDS011;11218;48.886;9.426;2022-12-18T00:14:57;66.27;;;23.27;;
22103;SDS011;11218;48.886;9.426;2022-12-18T00:17:27;73.10;;;25.47;;
22103;SDS011;11218;48.886;9.426;2022-12-18T00:19:55;77.03;;;25.93;;
22103;SDS011;11218;48.886;9.426;2022-12-18T00:22:24;75.53;;;24.57;;
22103;SDS011;11218;48.886;9.426;2022-12-18T00:24:51;70.83;;;24.80;;
22103;SDS011;11218;48.886;9.426;2022-12-18T00:27:19;66.27;;;24.57;;
22103;SDS011;11218;48.886;9.426;2022-12-18T00:29:48;65.27;;;23.40;;
22103;SDS011;11218;48.886;9.426;2022-12-18T00:32:16;66.47;;;24.13;;
22103;SDS011;11218;48.886;9.426;2022-12-18T00:34:45;62.77;;;24.67;;
22103;SDS011;11218;48.886;9.426;2022-12-18T00:37:13;70.93;;;24.30;;
22103;SDS011;11218;48.886;9.426;2022-12-18T00:39:47;67.93;;;25.40;;
22103;SDS011;11218;48.886;9.426;2022-12-18T00:42:16;75.73;;;26.43;;
22103;SDS011;11218;48.886;9.426;2022-12-18T00:45:02;68.00;;;23.43;;
22103;SDS011;11218;48.886;9.426;2022-12-18T00:47:37;65.13;;;23.13;;
22103;SDS011;11218;48.886;9.426;2022-12-18T00:50:07;65.03;;;22.70;;
22103;SDS011;11218;48.886;9.426;2022-12-18T00:52:37;68.50;;;22.67;;
22103;SDS011;11218;48.886;9.426;2022-12-18T00:55:09;69.57;;;25.87;;
22103;SDS011;11218;48.886;9.426;2022-12-18T00:57:38;69.53;;;26.00;;
22103;SDS011;11218;48.886;9.426;2022-12-18T01:00:09;72.63;;;28.07;;
22103;SDS011;11218;48.886;9.426;2022-12-18T01:02:40;74.50;;;26.50;;
22103;SDS011;11218;48.886;9.426;2022-12-18T01:05:10;65.90;;;25.83;;
22103;SDS011;11218;48.886;9.426;2022-12-18T01:07:40;60.93;;;23.70;;
22103;SDS011;11218;48.886;9.426;2022-12-18T01:10:09;64.30;;;22.57;;
22103;SDS011;11218;48.886;9.426;2022-12-18T01:12:39;66.77;;;24.70;;
22103;SDS011;11218;48.886;9.426;2022-12-18T01:15:07;68.20;;;24.03;;
22103;SDS011;11218;48.886;9.426;2022-12-18T01:17:37;70.00;;;24.53;;
22103;SDS011;11218;48.886;9.426;2022-12-18T01:20:05;60.87;;;22.27;;
22103;SDS011;11218;48.886;9.426;2022-12-18T01:22:37;57.73;;;22.43;;
22103;SDS011;11218;48.886;9.426;2022-12-18T01:25:06;61.97;;;22.17;;
22103;SDS011;11218;48.886;9.426;2022-12-18T01:27:35;64.23;;;22.53;;
22103;SDS011;11218;48.886;9.426;2022-12-18T01:30:03;72.47;;;25.40;;
22103;SDS011;11218;48.886;9.426;2022-12-18T01:32:32;71.90;;;23.80;;
22103;SDS011;11218;48.886;9.426;2022-12-18T01:35:01;70.27;;;23.50;;
22103;SDS011;11218;48.886;9.426;2022-12-18T01:37:29;79.83;;;27.60;;
22103;SDS011;11218;48.886;9.426;2022-12-18T01:39:59;98.87;;;29.87;;
22103;SDS011;11218;48.886;9.426;2022-12-18T01:42:27;86.73;;;30.27;;
22103;SDS011;11218;48.886;9.426;2022-12-18T01:45:00;84.07;;;28.90;;
22103;SDS011;11218;48.886;9.426;2022-12-18T01:47:33;93.73;;;29.00;;
22103;SDS011;11218;48.886;9.426;2022-12-18T01:50:05;91.80;;;28.53;;
22103;SDS011;11218;48.886;9.426;2022-12-18T01:52:36;88.60;;;27.70;;
22103;SDS011;11218;48.886;9.426;2022-12-18T01:55:11;96.33;;;28.93;;
22103;SDS011;11218;48.886;9.426;2022-12-18T01:57:40;88.63;;;27.40;;
22103;SDS011;11218;48.886;9.426;2022-12-18T02:00:10;95.50;;;30.13;;
22103;SDS011;11218;48.886;9.426;2022-12-18T02:02:40;91.67;;;29.80;;
22103;SDS011;11218;48.886;9.426;2022-12-18T02:05:10;81.83;;;28.20;;
22103;SDS011;11218;48.886;9.426;2022-12-18T02:07:42;81.20;;;26.33;;
22103;SDS011;11218;48.886;9.426;2022-12-18T02:10:20;87.93;;;28.13;;
22103;SDS011;11218;48.886;9.426;2022-12-18T02:12:53;91.37;;;28.47;;
22103;SDS011;11218;48.886;9.426;2022-12-18T02:15:26;96.03;;;28.23;;
22103;SDS011;11218;48.886;9.426;2022-12-18T02:18:03;88.73;;;27.53;;
22103;SDS011;11218;48.886;9.426;2022-12-18T02:20:36;78.13;;;27.27;;
22103;SDS011;11218;48.886;9.426;2022-12-18T02:23:11;88.73;;;28.20;;
22103;SDS011;11218;48.886;9.426;2022-12-18T02:26:02;88.43;;;28.43;;
22103;SDS011;11218;48.886;9.426;2022-12-18T02:28:40;82.97;;;28.47;;
22103;SDS011;11218;48.886;9.426;2022-12-18T02:31:14;87.73;;;28.13;;
22103;SDS011;11218;48.886;9.426;2022-12-18T02:33:51;76.33;;;24.63;;
22103;SDS011;11218;48.886;9.426;2022-12-18T02:36:26;90.00;;;27.33;;
22103;SDS011;11218;48.886;9.426;2022-12-18T02:38:56;73.23;;;24.80;;
22103;SDS011;11218;48.886;9.426;2022-12-18T02:41:28;75.23;;;23.43;;
22103;SDS011;11218;48.886;9.426;2022-12-18T02:43:58;71.17;;;22.47;;
22103;SDS011;11218;48.886;9.426;2022-12-18T02:46:32;77.63;;;24.30;;
22103;SDS011;11218;48.886;9.426;2022-12-18T02:49:05;74.37;;;24.60;;
22103;SDS011;11218;48.886;9.426;2022-12-18T02:51:42;77.47;;;25.53;;
22103;SDS011;11218;48.886;9.426;2022-12-18T02:54:21;80.80;;;25.43;;
22103;SDS011;11218;48.886;9.426;2022-12-18T02:56:57;83.87;;;25.00;;
22103;SDS011;11218;48.886;9.426;2022-12-18T02:59:36;64.80;;;23.13;;
22103;SDS011;11218;48.886;9.426;2022-12-18T03:02:10;87.97;;;27.50;;
22103;SDS011;11218;48.886;9.426;2022-12-18T03:04:47;80.73;;;27.17;;
22103;SDS011;11218;48.886;9.426;2022-12-18T03:07:23;82.53;;;25.63;;
22103;SDS011;11218;48.886;9.426;2022-12-18T03:10:00;82.97;;;26.77;;
22103;SDS011;11218;48.886;9.426;2022-12-18T03:12:34;86.90;;;26.33;;
22103;SDS011;11218;48.886;9.426;2022-12-18T03:15:06;75.90;;;24.30;;
22103;SDS011;11218;48.886;9.426;2022-12-18T03:17:44;71.80;;;24.83;;
22103;SDS011;11218;48.886;9.426;2022-12-18T03:20:18;63.77;;;22.53;;
22103;SDS011;11218;48.886;9.426;2022-12-18T03:22:50;68.57;;;23.33;;
22103;SDS011;11218;48.886;9.426;2022-12-18T03:25:20;62.40;;;21.73;;
22103;SDS011;11218;48.886;9.426;2022-12-18T03:27:51;70.50;;;25.07;;
22103;SDS011;11218;48.886;9.426;2022-12-18T03:30:23;78.50;;;24.47;;
22103;SDS011;11218;48.886;9.426;2022-12-18T03:32:54;67.10;;;22.73;;
22103;SDS011;11218;48.886;9.426;2022-12-18T03:35:29;57.83;;;20.70;;
22103;SDS011;11218;48.886;9.426;2022-12-18T03:37:59;65.57;;;22.13;;
22103;SDS011;11218;48.886;9.426;2022-12-18T03:40:29;64.27;;;21.53;;
22103;SDS011;11218;48.886;9.426;2022-12-18T03:43:06;58.93;;;20.73;;
22103;SDS011;11218;48.886;9.426;2022-12-18T03:45:39;66.97;;;23.83;;
22103;SDS011;11218;48.886;9.426;2022-12-18T03:48:12;70.60;;;21.77;;
22103;SDS011;11218;48.886;9.426;2022-12-18T03:50:46;71.53;;;22.60;;
22103;SDS011;11218;48.886;9.426;2022-12-18T03:53:23;70.23;;;23.50;;
22103;SDS011;11218;48.886;9.426;2022-12-18T03:55:56;64.33;;;22.93;;
22103;SDS011;11218;48.886;9.426;2022-12-18T03:58:28;61.90;;;22.13;;
22103;SDS011;11218;48.886;9.426;2022-12-18T04:01:00;55.77;;;20.67;;
22103;SDS011;11218;48.886;9.426;2022-12-18T04:03:31;64.13;;;21.97;;
22103;SDS011;11218;48.886;9.426;2022-12-18T04:06:02;69.53;;;24.47;;
22103;SDS011;11218;48.886;9.426;2022-12-18T04:08:31;69.73;;;22.73;;
22103;SDS011;11218;48.886;9.426;2022-12-18T04:11:01;64.57;;;22.47;;
22103;SDS011;11218;48.886;9.426;2022-12-18T04:13:33;62.93;;;21.27;;
22103;SDS011;11218;48.886;9.426;2022-12-18T04:16:04;69.90;;;23.13;;
22103;SDS011;11218;48.886;9.426;2022-12-18T04:18:32;59.97;;;22.30;;
22103;SDS011;11218;48.886;9.426;2022-12-18T04:21:02;64.50;;;23.07;;
22103;SDS011;11218;48.886;9.426;2022-12-18T04:23:30;70.87;;;23.70;;
22103;SDS011;11218;48.886;9.426;2022-12-18T04:25:58;66.37;;;22.37;;
22103;SDS011;11218;48.886;9.426;2022-12-18T04:28:26;64.73;;;21.70;;
22103;SDS011;11218;48.886;9.426;2022-12-18T04:30:55;70.00;;;22.90;;
22103;SDS011;11218;48.886;9.426;2022-12-18T04:33:23;59.73;;;21.63;;
22103;SDS011;11218;48.886;9.426;2022-12-18T04:35:52;61.03;;;23.13;;
22103;SDS011;11218;48.886;9.426;2022-12-18T04:38:20;66.33;;;22.70;;
22103;SDS011;11218;48.886;9.426;2022-12-18T04:40:48;68.63;;;23.20;;
22103;SDS011;11218;48.886;9.426;2022-12-18T04:43:16;64.10;;;21.87;;
22103;SDS011;11218;48.886;9.426;2022-12-18T04:45:45;59.60;;;21.83;;
22103;SDS011;11218;48.886;9.426;2022-12-18T04:48:14;64.57;;;21.57;;
22103;SDS011;11218;48.886;9.426;2022-12-18T04:50:42;48.53;;;18.83;;
22103;SDS011;11218;48.886;9.426;2022-12-18T04:53:10;66.07;;;23.20;;
22103;SDS011;11218;48.886;9.426;2022-12-18T04:55:38;69.37;;;23.07;;
22103;SDS011;11218;48.886;9.426;2022-12-18T04:58:06;66.33;;;22.67;;
22103;SDS011;11218;48.886;9.426;2022-12-18T05:00:34;65.37;;;22.63;;
22103;SDS011;11218;48.886;9.426;2022-12-18T05:03:02;63.10;;;21.33;;
22103;SDS011;11218;48.886;9.426;2022-12-18T05:05:33;58.50;;;20.53;;
22103;SDS011;11218;48.886;9.426;2022-12-18T05:08:02;65.73;;;21.73;;
22103;SDS011;11218;48.886;9.426;2022-12-18T05:10:30;64.67;;;22.13;;
22103;SDS011;11218;48.886;9.426;2022-12-18T05:13:03;60.90;;;20.53;;
22103;SDS011;11218;48.886;9.426;2022-12-18T05:15:31;65.00;;;22.37;;
22103;SDS011;11218;48.886;9.426;2022-12-18T05:18:00;66.63;;;21.43;;
22103;SDS011;11218;48.886;9.426;2022-12-18T05:20:30;63.77;;;20.57;;
22103;SDS011;11218;48.886;9.426;2022-12-18T05:23:00;71.20;;;21.60;;
22103;SDS011;11218;48.886;9.426;2022-12-18T05:25:28;64.23;;;20.93;;
22103;SDS011;11218;48.886;9.426;2022-12-18T05:27:56;64.23;;;21.53;;
22103;SDS011;11218;48.886;9.426;2022-12-18T05:30:25;69.20;;;21.87;;
22103;SDS011;11218;48.886;9.426;2022-12-18T05:32:53;69.33;;;22.47;;
22103;SDS011;11218;48.886;9.426;2022-12-18T05:35:24;63.93;;;21.13;;
22103;SDS011;11218;48.886;9.426;2022-12-18T05:37:53;68.10;;;21.93;;
22103;SDS011;11218;48.886;9.426;2022-12-18T05:40:22;63.33;;;20.97;;
22103;SDS011;11218;48.886;9.426;2022-12-18T05:42:50;68.60;;;21.23;;
22103;SDS011;11218;48.886;9.426;2022-12-18T05:45:18;65.23;;;20.93;;
22103;SDS011;11218;48.886;9.426;2022-12-18T05:47:46;74.53;;;23.30;;
22103;SDS011;11218;48.886;9.426;2022-12-18T05:50:14;71.03;;;22.20;;
22103;SDS011;11218;48.886;9.426;2022-12-18T05:52:43;61.43;;;21.27;;
22103;SDS011;11218;48.886;9.426;2022-12-18T05:55:12;68.70;;;21.93;;
22103;SDS011;11218;48.886;9.426;2022-12-18T05:57:40;65.43;;;22.37;;
22103;SDS011;11218;48.886;9.426;2022-12-18T06:00:09;67.77;;;20.90;;
22103;SDS011;11218;48.886;9.426;2022-12-18T06:02:38;61.67;;;20.67;;
22103;SDS011;11218;48.886;9.426;2022-12-18T06:05:06;71.33;;;21.67;;
22103;SDS011;11218;48.886;9.426;2022-12-18T06:07:35;64.30;;;21.23;;
22103;SDS011;11218;48.886;9.426;2022-12-18T06:10:03;70.50;;;22.50;;
22103;SDS011;11218;48.886;9.426;2022-12-18T06:12:33;76.13;;;23.53;;
22103;SDS011;11218;48.886;9.426;2022-12-18T06:15:01;68.97;;;21.23;;
22103;SDS011;11218;48.886;9.426;2022-12-18T06:17:29;68.53;;;21.93;;
22103;SDS011;11218;48.886;9.426;2022-12-18T06:20:00;70.17;;;21.73;;
22103;SDS011;11218;48.886;9.426;2022-12-18T06:22:30;60.37;;;20.67;;
22103;SDS011;11218;48.886;9.426;2022-12-18T06:24:58;61.00;;;21.07;;
22103;SDS011;11218;48.886;9.426;2022-12-18T06:27:26;65.37;;;21.50;;
22103;SDS011;11218;48.886;9.426;2022-12-18T06:29:55;61.20;;;20.63;;
22103;SDS011;11218;48.886;9.426;2022-12-18T06:32:24;68.73;;;22.90;;
22103;SDS011;11218;48.886;9.426;2022-12-18T06:34:52;64.67;;;21.93;;
22103;SDS011;11218;48.886;9.426;2022-12-18T06:37:21;71.50;;;22.43;;
22103;SDS011;11218;48.886;9.426;2022-12-18T06:39:52;71.37;;;22.70;;
22103;SDS011;11218;48.886;9.426;2022-12-18T06:42:23;70.37;;;22.07;;
22103;SDS011;11218;48.886;9.426;2022-12-18T06:44:51;66.67;;;20.80;;
22103;SDS011;11218;48.886;9.426;2022-12-18T06:47:21;67.10;;;21.47;;
22103;SDS011;11218;48.886;9.426;2022-12-18T06:49:49;68.30;;;22.07;;
22103;SDS011;11218;48.886;9.426;2022-12-18T06:52:17;69.60;;;21.13;;
22103;SDS011;11218;48.886;9.426;2022-12-18T06:54:47;69.40;;;22.00;;
22103;SDS011;11218;48.886;9.426;2022-12-18T06:57:15;76.43;;;23.23;;
22103;SDS011;11218;48.886;9.426;2022-12-18T06:59:42;72.37;;;20.60;;
22103;SDS011;11218;48.886;9.426;2022-12-18T07:02:11;73.83;;;22.53;;
22103;SDS011;11218;48.886;9.426;2022-12-18T07:04:41;70.73;;;21.30;;
22103;SDS011;11218;48.886;9.426;2022-12-18T07:07:10;68.07;;;20.97;;
22103;SDS011;11218;48.886;9.426;2022-12-18T07:09:38;71.47;;;21.80;;
22103;SDS011;11218;48.886;9.426;2022-12-18T07:12:06;74.37;;;22.13;;
22103;SDS011;11218;48.886;9.426;2022-12-18T07:14:34;76.13;;;21.80;;
22103;SDS011;11218;48.886;9.426;2022-12-18T07:17:02;79.37;;;23.60;;
22103;SDS011;11218;48.886;9.426;2022-12-18T07:19:31;85.57;;;24.40;;
22103;SDS011;11218;48.886;9.426;2022-12-18T07:22:01;77.00;;;23.37;;
22103;SDS011;11218;48.886;9.426;2022-12-18T07:24:29;75.60;;;22.83;;
22103;SDS011;11218;48.886;9.426;2022-12-18T07:26:58;79.07;;;23.70;;
22103;SDS011;11218;48.886;9.426;2022-12-18T07:29:26;60.87;;;19.97;;
22103;SDS011;11218;48.886;9.426;2022-12-18T07:31:54;76.03;;;22.63;;
22103;SDS011;11218;48.886;9.426;2022-12-18T07:34:22;70.70;;;22.03;;
22103;SDS011;11218;48.886;9.426;2022-12-18T07:36:50;65.77;;;21.57;;
22103;SDS011;11218;48.886;9.426;2022-12-18T07:39:20;77.20;;;23.20;;
22103;SDS011;11218;48.886;9.426;2022-12-18T07:41:47;70.57;;;21.57;;
22103;SDS011;11218;48.886;9.426;2022-12-18T07:44:36;75.33;;;22.57;;
22103;SDS011;11218;48.886;9.426;2022-12-18T07:47:05;80.47;;;23.67;;
22103;SDS011;11218;48.886;9.426;2022-12-18T07:49:37;68.40;;;22.27;;
22103;SDS011;11218;48.886;9.426;2022-12-18T07:52:06;72.07;;;22.83;;
22103;SDS011;11218;48.886;9.426;2022-12-18T07:54:36;76.50;;;23.13;;
22103;SDS011;11218;48.886;9.426;2022-12-18T07:57:04;66.87;;;21.00;;
22103;SDS011;11218;48.886;9.426;2022-12-18T07:59:52;79.53;;;23.83;;
22103;SDS011;11218;48.886;9.426;2022-12-18T08:02:23;61.53;;;21.03;;
22103;SDS011;11218;48.886;9.426;2022-12-18T08:04:51;78.97;;;23.27;;
22103;SDS011;11218;48.886;9.426;2022-12-18T08:07:20;70.53;;;21.77;;
22103;SDS011;11218;48.886;9.426;2022-12-18T08:09:49;66.67;;;20.73;;
22103;SDS011;11218;48.886;9.426;2022-12-18T08:12:17;71.33;;;21.90;;
22103;SDS011;11218;48.886;9.426;2022-12-18T08:14:45;74.43;;;22.73;;
22103;SDS011;11218;48.886;9.426;2022-12-18T08:17:13;68.63;;;22.20;;
22103;SDS011;11218;48.886;9.426;2022-12-18T08:19:41;84.23;;;23.73;;
22103;SDS011;11218;48.886;9.426;2022-12-18T08:22:09;81.47;;;23.13;;
22103;SDS011;11218;48.886;9.426;2022-12-18T08:24:37;79.77;;;23.30;;
22103;SDS011;11218;48.886;9.426;2022-12-18T08:27:07;79.17;;;23.40;;
22103;SDS011;11218;48.886;9.426;2022-12-18T08:29:55;73.53;;;22.77;;
22103;SDS011;11218;48.886;9.426;2022-12-18T08:32:23;84.17;;;24.13;;
22103;SDS011;11218;48.886;9.426;2022-12-18T08:34:53;82.73;;;24.37;;
22103;SDS011;11218;48.886;9.426;2022-12-18T08:37:21;84.27;;;24.80;;
22103;SDS011;11218;48.886;9.426;2022-12-18T08:39:49;76.10;;;23.80;;
22103;SDS011;11218;48.886;9.426;2022-12-18T08:42:19;79.70;;;23.97;;
22103;SDS011;11218;48.886;9.426;2022-12-18T08:45:05;84.70;;;23.87;;
22103;SDS011;11218;48.886;9.426;2022-12-18T08:47:33;76.40;;;22.93;;
22103;SDS011;11218;48.886;9.426;2022-12-18T08:50:02;81.63;;;24.03;;
22103;SDS011;11218;48.886;9.426;2022-12-18T08:52:32;86.93;;;23.97;;
22103;SDS011;11218;48.886;9.426;2022-12-18T08:55:00;90.07;;;24.57;;
22103;SDS011;11218;48.886;9.426;2022-12-18T08:57:29;82.13;;;24.10;;
22103;SDS011;11218;48.886;9.426;2022-12-18T08:59:58;80.67;;;23.93;;
22103;SDS011;11218;48.886;9.426;2022-12-18T09:02:26;93.97;;;27.57;;
22103;SDS011;11218;48.886;9.426;2022-12-18T09:04:54;83.27;;;25.00;;
22103;SDS011;11218;48.886;9.426;2022-12-18T09:07:23;75.47;;;22.33;;
22103;SDS011;11218;48.886;9.426;2022-12-18T09:09:51;69.13;;;22.23;;
22103;SDS011;11218;48.886;9.426;2022-12-18T09:12:19;89.33;;;24.70;;
22103;SDS011;11218;48.886;9.426;2022-12-18T09:14:48;82.67;;;25.33;;
22103;SDS011;11218;48.886;9.426;2022-12-18T09:17:16;80.33;;;23.60;;
22103;SDS011;11218;48.886;9.426;2022-12-18T09:19:45;73.43;;;22.77;;
22103;SDS011;11218;48.886;9.426;2022-12-18T09:22:12;74.53;;;22.63;;
22103;SDS011;11218;48.886;9.426;2022-12-18T09:24:40;76.33;;;25.80;;
22103;SDS011;11218;48.886;9.426;2022-12-18T09:27:09;77.57;;;25.33;;
22103;SDS011;11218;48.886;9.426;2022-12-18T09:29:37;75.93;;;23.10;;
22103;SDS011;11218;48.886;9.426;2022-12-18T09:32:06;86.10;;;23.87;;
22103;SDS011;11218;48.886;9.426;2022-12-18T09:34:35;83.63;;;24.63;;
22103;SDS011;11218;48.886;9.426;2022-12-18T09:37:03;96.80;;;26.43;;
22103;SDS011;11218;48.886;9.426;2022-12-18T09:39:31;78.97;;;24.13;;
22103;SDS011;11218;48.886;9.426;2022-12-18T09:41:59;72.47;;;23.67;;
22103;SDS011;11218;48.886;9.426;2022-12-18T09:44:27;78.27;;;23.90;;
22103;SDS011;11218;48.886;9.426;2022-12-18T09:47:12;96.30;;;25.67;;
22103;SDS011;11218;48.886;9.426;2022-12-18T09:49:44;80.03;;;24.53;;
22103;SDS011;11218;48.886;9.426;2022-12-18T09:52:16;84.77;;;28.50;;
22103;SDS011;11218;48.886;9.426;2022-12-18T09:54:48;79.23;;;24.47;;
22103;SDS011;11218;48.886;9.426;2022-12-18T09:57:20;72.57;;;23.13;;
22103;SDS011;11218;48.886;9.426;2022-12-18T09:59:51;84.67;;;25.30;;
22103;SDS011;11218;48.886;9.426;2022-12-18T10:02:24;81.40;;;23.63;;
22103;SDS011;11218;48.886;9.426;2022-12-18T10:04:59;69.50;;;22.17;;
22103;SDS011;11218;48.886;9.426;2022-12-18T10:07:36;73.40;;;23.13;;
22103;SDS011;11218;48.886;9.426;2022-12-18T10:10:18;75.27;;;23.57;;
22103;SDS011;11218;48.886;9.426;2022-12-18T10:12:56;65.77;;;21.13;;
22103;SDS011;11218;48.886;9.426;2022-12-18T10:15:35;67.00;;;21.57;;
22103;SDS011;11218;48.886;9.426;2022-12-18T10:18:17;75.30;;;21.97;;
22103;SDS011;11218;48.886;9.426;2022-12-18T10:21:00;75.27;;;22.73;;
22103;SDS011;11218;48.886;9.426;2022-12-18T10:23:37;79.93;;;23.30;;
22103;SDS011;11218;48.886;9.426;2022-12-18T10:26:13;69.43;;;22.27;;
22103;SDS011;11218;48.886;9.426;2022-12-18T10:28:43;73.67;;;23.37;;
22103;SDS011;11218;48.886;9.426;2022-12-18T10:31:12;81.77;;;23.53;;
22103;SDS011;11218;48.886;9.426;2022-12-18T10:33:44;68.50;;;22.47;;
22103;SDS011;11218;48.886;9.426;2022-12-18T10:36:13;70.93;;;22.37;;
22103;SDS011;11218;48.886;9.426;2022-12-18T10:38:42;65.83;;;22.20;;
22103;SDS011;11218;48.886;9.426;2022-12-18T10:41:22;73.57;;;22.33;;
22103;SDS011;11218;48.886;9.426;2022-12-18T10:44:10;63.90;;;22.50;;
22103;SDS011;11218;48.886;9.426;2022-12-18T10:46:47;62.97;;;20.93;;
22103;SDS011;11218;48.886;9.426;2022-12-18T10:49:21;68.53;;;20.57;;
22103;SDS011;11218;48.886;9.426;2022-12-18T10:51:52;74.13;;;22.30;;
22103;SDS011;11218;48.886;9.426;2022-12-18T10:54:35;67.43;;;21.50;;
22103;SDS011;11218;48.886;9.426;2022-12-18T10:57:14;68.83;;;21.00;;
22103;SDS011;11218;48.886;9.426;2022-12-18T10:59:49;81.77;;;23.43;;
22103;SDS011;11218;48.886;9.426;2022-12-18T11:02:25;80.53;;;23.40;;
22103;SDS011;11218;48.886;9.426;2022-12-18T11:04:57;71.27;;;22.30;;
22103;SDS011;11218;48.886;9.426;2022-12-18T11:07:26;86.00;;;25.07;;
22103;SDS011;11218;48.886;9.426;2022-12-18T11:10:15;74.33;;;22.67;;
22103;SDS011;11218;48.886;9.426;2022-12-18T11:12:46;69.00;;;21.83;;
22103;SDS011;11218;48.886;9.426;2022-12-18T11:15:15;73.03;;;22.23;;
22103;SDS011;11218;48.886;9.426;2022-12-18T11:17:49;66.20;;;21.85;;
22103;SDS011;11218;48.886;9.426;2022-12-18T11:20:23;68.40;;;21.90;;
22103;SDS011;11218;48.886;9.426;2022-12-18T11:22:58;67.80;;;21.67;;
22103;SDS011;11218;48.886;9.426;2022-12-18T11:25:29;65.40;;;21.57;;
22103;SDS011;11218;48.886;9.426;2022-12-18T11:28:01;62.37;;;21.17;;
22103;SDS011;11218;48.886;9.426;2022-12-18T11:30:32;77.53;;;23.30;;
22103;SDS011;11218;48.886;9.426;2022-12-18T11:33:02;67.23;;;21.80;;
22103;SDS011;11218;48.886;9.426;2022-12-18T11:35:53;70.00;;;22.77;;
22103;SDS011;11218;48.886;9.426;2022-12-18T11:38:26;65.30;;;21.37;;
22103;SDS011;11218;48.886;9.426;2022-12-18T11:40:58;80.67;;;22.93;;
22103;SDS011;11218;48.886;9.426;2022-12-18T11:43:29;73.53;;;22.17;;
22103;SDS011;11218;48.886;9.426;2022-12-18T11:46:02;85.20;;;24.70;;
22103;SDS011;11218;48.886;9.426;2022-12-18T11:48:34;71.37;;;22.57;;
22103;SDS011;11218;48.886;9.426;2022-12-18T11:51:13;65.65;;;21.77;;
22103;SDS011;11218;48.886;9.426;2022-12-18T11:53:52;69.10;;;21.60;;
22103;SDS011;11218;48.886;9.426;2022-12-18T11:56:26;76.88;;;22.90;;
22103;SDS011;11218;48.886;9.426;2022-12-18T11:59:02;71.97;;;21.33;;
22103;SDS011;11218;48.886;9.426;2022-12-18T12:01:44;73.83;;;22.60;;
22103;SDS011;11218;48.886;9.426;2022-12-18T12:04:30;72.25;;;22.05;;
22103;SDS011;11218;48.886;9.426;2022-12-18T12:07:15;70.70;;;21.33;;
22103;SDS011;11218;48.886;9.426;2022-12-18T12:09:55;60.73;;;19.97;;
22103;SDS011;11218;48.886;9.426;2022-12-18T12:12:34;72.50;;;22.20;;
22103;SDS011;11218;48.886;9.426;2022-12-18T12:15:21;81.97;;;23.90;;
22103;SDS011;11218;48.886;9.426;2022-12-18T12:17:58;71.40;;;22.33;;
22103;SDS011;11218;48.886;9.426;2022-12-18T12:20:39;74.63;;;22.43;;
22103;SDS011;11218;48.886;9.426;2022-12-18T12:23:17;77.67;;;22.67;;
22103;SDS011;11218;48.886;9.426;2022-12-18T12:25:55;77.25;;;22.85;;
22103;SDS011;11218;48.886;9.426;2022-12-18T12:28:36;76.00;;;23.10;;
22103;SDS011;11218;48.886;9.426;2022-12-18T12:31:21;79.17;;;24.00;;
22103;SDS011;11218;48.886;9.426;2022-12-18T12:33:57;70.80;;;21.80;;
22103;SDS011;11218;48.886;9.426;2022-12-18T12:36:37;69.93;;;21.67;;
22103;SDS011;11218;48.886;9.426;2022-12-18T12:39:19;76.27;;;23.07;;
22103;SDS011;11218;48.886;9.426;2022-12-18T12:41:53;73.32;;;23.25;;
22103;SDS011;11218;48.886;9.426;2022-12-18T12:44:48;69.37;;;21.13;;
22103;SDS011;11218;48.886;9.426;2022-12-18T12:47:23;80.17;;;22.27;;
22103;SDS011;11218;48.886;9.426;2022-12-18T12:49:56;66.53;;;21.00;;
22103;SDS011;11218;48.886;9.426;2022-12-18T12:52:29;72.50;;;21.57;;
22103;SDS011;11218;48.886;9.426;2022-12-18T12:55:05;69.77;;;21.73;;
22103;SDS011;11218;48.886;9.426;2022-12-18T12:57:42;65.30;;;21.43;;
22103;SDS011;11218;48.886;9.426;2022-12-18T13:00:17;80.28;;;23.52;;
22103;SDS011;11218;48.886;9.426;2022-12-18T13:02:47;70.47;;;20.90;;
22103;SDS011;11218;48.886;9.426;2022-12-18T13:05:28;74.27;;;21.93;;
22103;SDS011;11218;48.886;9.426;2022-12-18T13:08:02;76.53;;;22.33;;
22103;SDS011;11218;48.886;9.426;2022-12-18T13:10:34;70.40;;;22.17;;
22103;SDS011;11218;48.886;9.426;2022-12-18T13:13:04;71.47;;;22.73;;
22103;SDS011;11218;48.886;9.426;2022-12-18T13:16:03;65.23;;;21.80;;
22103;SDS011;11218;48.886;9.426;2022-12-18T13:18:32;73.95;;;22.83;;
22103;SDS011;11218;48.886;9.426;2022-12-18T13:21:02;72.78;;;22.27;;
22103;SDS011;11218;48.886;9.426;2022-12-18T13:23:39;72.63;;;22.20;;
22103;SDS011;11218;48.886;9.426;2022-12-18T13:26:29;74.22;;;22.58;;
22103;SDS011;11218;48.886;9.426;2022-12-18T13:29:00;73.05;;;22.88;;
22103;SDS011;11218;48.886;9.426;2022-12-18T13:34:36;70.37;;;21.70;;
22103;SDS011;11218;48.886;9.426;2022-12-18T13:43:34;58.90;;;20.03;;
22103;SDS011;11218;48.886;9.426;2022-12-18T13:46:18;68.40;;;21.93;;
22103;SDS011;11218;48.886;9.426;2022-12-18T13:48:58;70.97;;;21.30;;
22103;SDS011;11218;48.886;9.426;2022-12-18T13:51:31;69.18;;;20.48;;
22103;SDS011;11218;48.886;9.426;2022-12-18T13:54:02;71.57;;;21.90;;
22103;SDS011;11218;48.886;9.426;2022-12-18T13:56:43;74.13;;;22.13;;
22103;SDS011;11218;48.886;9.426;2022-12-18T13:59:15;75.70;;;24.90;;
22103;SDS011;11218;48.886;9.426;2022-12-18T14:01:51;70.87;;;23.20;;
22103;SDS011;11218;48.886;9.426;2022-12-18T14:04:24;74.63;;;22.97;;
22103;SDS011;11218;48.886;9.426;2022-12-18T14:06:57;68.13;;;22.23;;
22103;SDS011;11218;48.886;9.426;2022-12-18T14:09:30;69.40;;;22.03;;
22103;SDS011;11218;48.886;9.426;2022-12-18T14:12:04;69.40;;;22.00;;
22103;SDS011;11218;48.886;9.426;2022-12-18T14:14:52;62.37;;;21.27;;
22103;SDS011;11218;48.886;9.426;2022-12-18T14:17:21;66.50;;;21.23;;
22103;SDS011;11218;48.886;9.426;2022-12-18T14:19:50;68.57;;;22.45;;
22103;SDS011;11218;48.886;9.426;2022-12-18T14:22:21;65.77;;;20.83;;
22103;SDS011;11218;48.886;9.426;2022-12-18T14:25:05;59.57;;;20.23;;
22103;SDS011;11218;48.886;9.426;2022-12-18T14:27:43;64.77;;;22.00;;
22103;SDS011;11218;48.886;9.426;2022-12-18T14:33:09;66.40;;;21.00;;
22103;SDS011;11218;48.886;9.426;2022-12-18T14:35:38;68.23;;;22.07;;
22103;SDS011;11218;48.886;9.426;2022-12-18T14:38:09;63.90;;;21.10;;
22103;SDS011;11218;48.886;9.426;2022-12-18T14:40:53;70.27;;;22.57;;
22103;SDS011;11218;48.886;9.426;2022-12-18T14:43:24;61.83;;;21.10;;
22103;SDS011;11218;48.886;9.426;2022-12-18T14:45:53;64.87;;;22.30;;
22103;SDS011;11218;48.886;9.426;2022-12-18T14:48:25;59.83;;;21.33;;
22103;SDS011;11218;48.886;9.426;2022-12-18T14:51:03;61.97;;;22.07;;
22103;SDS011;11218;48.886;9.426;2022-12-18T14:53:34;65.00;;;21.60;;
22103;SDS011;11218;48.886;9.426;2022-12-18T14:56:14;61.03;;;21.23;;
22103;SDS011;11218;48.886;9.426;2022-12-18T14:58:44;73.73;;;23.30;;
22103;SDS011;11218;48.886;9.426;2022-12-18T15:01:20;64.10;;;22.37;;